createdAt,value
2018-04-30T00:00:42.712Z,14.80
2018-04-30T00:03:10.264Z,14.80
2018-04-30T00:05:38.611Z,14.90
2018-04-30T00:08:06.183Z,14.90
2018-04-30T00:10:33.759Z,14.90
2018-04-30T00:13:02.076Z,14.80
2018-04-30T00:15:29.643Z,14.80
2018-04-30T00:17:57.211Z,14.70
2018-04-30T00:20:24.792Z,14.70
2018-04-30T00:22:52.344Z,14.70
2018-04-30T00:25:19.936Z,14.70
2018-04-30T00:27:48.260Z,14.70
2018-04-30T00:30:15.823Z,14.70
2018-04-30T00:32:43.377Z,14.70
2018-04-30T00:35:10.951Z,14.70
2018-04-30T00:37:38.523Z,14.70
2018-04-30T00:40:06.088Z,14.70
2018-04-30T00:42:33.650Z,14.70
2018-04-30T00:45:01.311Z,14.80
2018-04-30T00:47:28.896Z,14.90
2018-04-30T00:49:57.240Z,14.80
2018-04-30T00:52:24.818Z,14.80
2018-04-30T00:55:01.345Z,14.70
2018-04-30T00:57:28.939Z,14.70
2018-04-30T00:59:57.268Z,14.70
2018-04-30T01:02:24.939Z,14.60
2018-04-30T01:04:52.477Z,14.60
2018-04-30T01:07:20.823Z,14.70
2018-04-30T01:09:48.379Z,14.60
2018-04-30T01:12:18.908Z,14.70
2018-04-30T01:14:46.575Z,14.60
2018-04-30T01:17:14.163Z,14.60
2018-04-30T01:19:42.531Z,14.70
2018-04-30T01:22:10.877Z,14.70
2018-04-30T01:24:38.419Z,14.60
2018-04-30T01:27:05.997Z,14.70
2018-04-30T01:29:33.567Z,14.70
2018-04-30T01:32:01.155Z,14.70
2018-04-30T01:34:29.496Z,14.60
2018-04-30T01:36:57.056Z,14.60
2018-04-30T01:39:24.620Z,14.60
2018-04-30T01:41:52.237Z,14.70
2018-04-30T01:44:19.774Z,14.70
2018-04-30T01:46:47.343Z,14.70
2018-04-30T01:49:14.923Z,14.70
2018-04-30T01:51:42.477Z,14.70
2018-04-30T01:54:10.055Z,14.60
2018-04-30T01:56:37.628Z,14.60
2018-04-30T01:59:05.203Z,14.60
2018-04-30T02:01:32.800Z,14.60
2018-04-30T02:04:01.138Z,14.70
2018-04-30T02:06:28.731Z,14.70
2018-04-30T02:08:56.285Z,14.70
2018-04-30T02:11:23.868Z,14.70
2018-04-30T02:13:52.199Z,14.60
2018-04-30T02:16:19.788Z,14.60
2018-04-30T02:18:47.328Z,14.70
2018-04-30T02:21:14.901Z,14.60
2018-04-30T02:23:42.503Z,14.60
2018-04-30T02:26:10.113Z,14.60
2018-04-30T02:28:37.660Z,14.50
2018-04-30T02:31:05.365Z,14.40
2018-04-30T02:33:33.803Z,14.30
2018-04-30T02:36:01.252Z,14.20
2018-04-30T02:38:28.850Z,14.20
2018-04-30T02:40:56.388Z,14.20
2018-04-30T02:43:23.976Z,14.20
2018-04-30T02:45:52.307Z,14.30
2018-04-30T02:48:20.039Z,14.30
2018-04-30T02:50:47.593Z,14.30
2018-04-30T02:53:15.176Z,14.40
2018-04-30T02:55:42.734Z,14.30
2018-04-30T02:58:10.308Z,14.30
2018-04-30T03:00:37.856Z,14.30
2018-04-30T03:03:05.503Z,14.30
2018-04-30T03:05:33.068Z,14.40
2018-04-30T03:08:00.636Z,14.30
2018-04-30T03:10:28.197Z,14.40
2018-04-30T03:12:55.769Z,14.40
2018-04-30T03:15:23.325Z,14.30
2018-04-30T03:17:50.901Z,14.20
2018-04-30T03:20:18.435Z,14.20
2018-04-30T03:22:46.090Z,14.10
2018-04-30T03:25:13.735Z,14.20
2018-04-30T03:27:41.311Z,14.20
2018-04-30T03:30:08.880Z,14.20
2018-04-30T03:32:36.431Z,14.20
2018-04-30T03:35:04.019Z,14.20
2018-04-30T03:37:31.585Z,14.10
2018-04-30T03:39:59.155Z,14.20
2018-04-30T03:42:26.705Z,14.10
2018-04-30T03:44:54.275Z,14.20
2018-04-30T03:47:21.872Z,14.30
2018-04-30T03:49:50.211Z,14.30
2018-04-30T03:52:17.823Z,14.20
2018-04-30T03:54:45.417Z,14.20
2018-04-30T03:57:13.055Z,14.10
2018-04-30T03:59:40.627Z,14.10
2018-04-30T04:02:21.136Z,14.20
2018-04-30T04:05:01.588Z,14.20
2018-04-30T04:07:29.148Z,14.10
2018-04-30T04:09:56.852Z,14.10
2018-04-30T04:12:24.432Z,14.10
2018-04-30T04:14:52.032Z,14.00
2018-04-30T04:17:20.049Z,13.90
2018-04-30T04:19:47.655Z,13.90
2018-04-30T04:22:15.286Z,13.80
2018-04-30T04:24:43.007Z,13.80
2018-04-30T04:27:12.520Z,13.60
2018-04-30T04:29:41.043Z,13.60
2018-04-30T04:32:08.637Z,13.50
2018-04-30T04:34:36.195Z,13.50
2018-04-30T04:37:03.760Z,13.40
2018-04-30T04:39:31.483Z,13.40
2018-04-30T04:41:59.125Z,13.40
2018-04-30T04:44:26.818Z,13.30
2018-04-30T04:46:54.391Z,13.30
2018-04-30T04:49:22.041Z,13.30
2018-04-30T04:51:49.629Z,13.30
2018-04-30T04:54:17.191Z,13.40
2018-04-30T04:56:44.836Z,13.40
2018-04-30T04:59:12.714Z,13.40
2018-04-30T05:01:40.264Z,13.40
2018-04-30T05:04:07.897Z,13.40
2018-04-30T05:06:35.499Z,13.40
2018-04-30T05:09:03.899Z,13.50
2018-04-30T05:11:31.435Z,13.50
2018-04-30T05:13:59.000Z,13.50
2018-04-30T05:16:26.563Z,13.40
2018-04-30T05:18:54.131Z,13.40
2018-04-30T05:21:22.447Z,13.40
2018-04-30T05:23:50.007Z,13.40
2018-04-30T05:26:17.567Z,13.40
2018-04-30T05:28:45.103Z,13.40
2018-04-30T05:31:13.446Z,13.40
2018-04-30T05:33:41.130Z,13.30
2018-04-30T05:36:09.484Z,13.30
2018-04-30T05:38:37.063Z,13.30
2018-04-30T05:41:04.616Z,13.30
2018-04-30T05:43:32.160Z,13.30
2018-04-30T05:45:59.789Z,13.30
2018-04-30T05:48:27.331Z,13.30
2018-04-30T05:50:54.932Z,13.30
2018-04-30T05:53:22.480Z,13.40
2018-04-30T05:55:50.043Z,13.40
2018-04-30T05:58:17.620Z,13.40
2018-04-30T06:00:45.193Z,13.40
2018-04-30T06:03:12.810Z,13.40
2018-04-30T06:05:40.376Z,13.40
2018-04-30T06:08:07.940Z,13.50
2018-04-30T06:10:35.592Z,13.60
2018-04-30T06:13:03.191Z,13.70
2018-04-30T06:15:30.775Z,13.70
2018-04-30T06:17:59.111Z,13.60
2018-04-30T06:20:26.664Z,13.60
2018-04-30T06:22:54.231Z,13.70
2018-04-30T06:25:21.784Z,13.60
2018-04-30T06:27:49.347Z,13.60
2018-04-30T06:30:16.905Z,13.60
2018-04-30T06:32:44.491Z,13.60
2018-04-30T06:35:12.064Z,13.60
2018-04-30T06:37:39.630Z,13.60
2018-04-30T06:40:08.691Z,13.50
2018-04-30T06:42:36.267Z,13.50
2018-04-30T06:45:03.875Z,13.50
2018-04-30T06:47:31.470Z,13.50
2018-04-30T06:49:59.011Z,13.50
2018-04-30T06:52:26.562Z,13.50
2018-04-30T06:54:54.147Z,13.40
2018-04-30T06:57:21.724Z,13.40
2018-04-30T06:59:49.384Z,13.30
2018-04-30T07:02:16.999Z,13.20
2018-04-30T07:04:44.564Z,13.30
2018-04-30T07:07:12.173Z,13.30
2018-04-30T07:09:39.851Z,13.30
2018-04-30T07:12:07.336Z,13.30
2018-04-30T07:14:34.922Z,13.30
2018-04-30T07:17:02.535Z,13.40
2018-04-30T07:19:30.144Z,13.30
2018-04-30T07:21:57.685Z,13.40
2018-04-30T07:24:25.258Z,13.40
2018-04-30T07:26:52.841Z,13.40
2018-04-30T07:29:20.403Z,13.50
2018-04-30T07:31:47.949Z,13.40
2018-04-30T07:34:15.525Z,13.40
2018-04-30T07:36:43.100Z,13.40
2018-04-30T07:39:10.734Z,13.30
2018-04-30T07:41:38.994Z,13.30
2018-04-30T07:44:06.550Z,13.30
2018-04-30T07:46:34.119Z,13.40
2018-04-30T07:49:01.800Z,13.40
2018-04-30T07:51:29.418Z,13.60
2018-04-30T07:53:57.978Z,13.80
2018-04-30T07:56:25.540Z,13.80
2018-04-30T07:58:53.143Z,13.70
2018-04-30T08:01:20.719Z,13.70
2018-04-30T08:03:48.395Z,13.60
2018-04-30T08:06:15.967Z,13.50
2018-04-30T08:08:43.515Z,13.50
2018-04-30T08:11:11.091Z,13.60
2018-04-30T08:13:38.649Z,13.70
2018-04-30T08:16:06.254Z,13.80
2018-04-30T08:18:34.572Z,13.80
2018-04-30T08:21:02.142Z,13.80
2018-04-30T08:23:29.755Z,13.90
2018-04-30T08:25:57.307Z,14.00
2018-04-30T08:28:24.884Z,14.00
2018-04-30T08:30:52.453Z,14.00
2018-04-30T08:33:20.021Z,14.00
2018-04-30T08:35:47.576Z,13.90
2018-04-30T08:38:15.141Z,13.90
2018-04-30T08:40:42.693Z,14.00
2018-04-30T08:43:10.283Z,14.20
2018-04-30T08:45:37.855Z,14.40
2018-04-30T08:48:05.418Z,14.40
2018-04-30T08:50:32.959Z,14.40
2018-04-30T08:53:00.530Z,14.30
2018-04-30T08:55:28.078Z,14.20
2018-04-30T08:57:55.639Z,14.20
2018-04-30T09:00:23.228Z,14.20
2018-04-30T09:02:51.547Z,14.40
2018-04-30T09:05:19.114Z,14.30
2018-04-30T09:07:46.679Z,14.40
2018-04-30T09:10:14.311Z,14.40
2018-04-30T09:12:41.866Z,14.40
2018-04-30T09:15:10.244Z,14.80
2018-04-30T09:17:37.837Z,14.80
2018-04-30T09:20:05.796Z,15.00
2018-04-30T09:22:33.403Z,15.20
2018-04-30T09:25:00.972Z,15.40
2018-04-30T09:27:29.339Z,15.40
2018-04-30T09:29:56.944Z,15.40
2018-04-30T09:32:24.491Z,15.30
2018-04-30T09:34:52.926Z,15.10
2018-04-30T09:37:20.479Z,15.10
2018-04-30T09:39:48.070Z,15.20
2018-04-30T09:42:15.616Z,15.20
2018-04-30T09:44:43.264Z,15.30
2018-04-30T09:47:10.818Z,15.20
2018-04-30T09:49:38.373Z,15.10
2018-04-30T09:52:06.017Z,15.00
2018-04-30T09:54:33.567Z,14.90
2018-04-30T09:57:01.148Z,14.70
2018-04-30T09:59:28.703Z,14.60
2018-04-30T10:01:56.288Z,14.60
2018-04-30T10:04:23.842Z,14.70
2018-04-30T10:06:51.422Z,14.90
2018-04-30T10:09:19.079Z,15.10
2018-04-30T10:11:46.791Z,15.40
2018-04-30T10:14:14.332Z,15.50
2018-04-30T10:16:42.661Z,15.70
2018-04-30T10:19:10.411Z,15.60
2018-04-30T10:21:37.975Z,15.70
2018-04-30T10:24:05.540Z,15.60
2018-04-30T10:26:33.123Z,15.50
2018-04-30T10:29:00.894Z,15.40
2018-04-30T10:31:28.369Z,15.50
2018-04-30T10:33:55.950Z,15.50
2018-04-30T10:36:24.319Z,15.60
2018-04-30T10:38:52.676Z,15.80
2018-04-30T10:41:20.255Z,15.80
2018-04-30T10:43:47.826Z,16.00
2018-04-30T10:46:15.388Z,16.40
2018-04-30T10:48:43.711Z,16.60
2018-04-30T10:51:11.452Z,16.50
2018-04-30T10:53:39.036Z,16.40
2018-04-30T10:56:06.583Z,16.30
2018-04-30T10:58:34.332Z,16.10
2018-04-30T11:01:01.892Z,15.90
2018-04-30T11:03:29.532Z,15.60
2018-04-30T11:05:57.875Z,15.40
2018-04-30T11:08:25.439Z,15.40
2018-04-30T11:10:53.002Z,15.60
2018-04-30T11:13:20.665Z,15.90
2018-04-30T11:15:48.303Z,16.10
2018-04-30T11:18:15.876Z,16.10
2018-04-30T11:20:43.480Z,16.10
2018-04-30T11:23:11.027Z,16.10
2018-04-30T11:25:39.359Z,15.80
2018-04-30T11:28:06.944Z,15.80
2018-04-30T11:30:36.015Z,15.90
2018-04-30T11:33:03.579Z,15.80
2018-04-30T11:35:31.219Z,16.10
2018-04-30T11:37:58.788Z,16.40
2018-04-30T11:40:26.373Z,16.50
2018-04-30T11:42:53.945Z,16.70
2018-04-30T11:45:21.527Z,16.90
2018-04-30T11:47:49.856Z,17.40
2018-04-30T11:50:17.427Z,17.40
2018-04-30T11:52:44.999Z,17.70
2018-04-30T11:55:12.560Z,18.00
2018-04-30T11:57:40.139Z,18.20
2018-04-30T12:00:08.522Z,18.20
2018-04-30T12:02:36.892Z,18.00
2018-04-30T12:05:04.421Z,18.00
2018-04-30T12:07:32.162Z,18.00
2018-04-30T12:09:59.735Z,17.70
2018-04-30T12:12:27.331Z,17.20
2018-04-30T12:14:54.903Z,16.80
2018-04-30T12:17:23.254Z,16.60
2018-04-30T12:19:50.846Z,16.70
2018-04-30T12:22:19.184Z,16.60
2018-04-30T12:24:46.747Z,16.60
2018-04-30T12:27:14.321Z,16.50
2018-04-30T12:29:42.656Z,15.70
2018-04-30T12:32:10.249Z,15.70
2018-04-30T12:34:37.809Z,15.40
2018-04-30T12:37:05.416Z,15.20
2018-04-30T12:39:32.992Z,15.00
2018-04-30T12:42:00.579Z,15.00
2018-04-30T12:44:28.141Z,15.00
2018-04-30T12:46:55.718Z,14.90
2018-04-30T12:49:23.365Z,15.30
2018-04-30T12:51:50.913Z,15.80
2018-04-30T12:54:18.640Z,16.10
2018-04-30T12:56:46.239Z,16.40
2018-04-30T12:59:13.880Z,16.40
2018-04-30T13:01:41.446Z,16.20
2018-04-30T13:04:09.083Z,16.20
2018-04-30T13:06:37.406Z,16.20
2018-04-30T13:09:04.977Z,16.20
2018-04-30T13:11:32.644Z,16.30
2018-04-30T13:14:00.219Z,16.40
2018-04-30T13:16:28.655Z,16.10
2018-04-30T13:18:56.227Z,16.10
2018-04-30T13:21:23.813Z,16.00
2018-04-30T13:23:51.378Z,15.90
2018-04-30T13:26:19.038Z,15.50
2018-04-30T13:28:46.627Z,15.10
2018-04-30T13:31:14.227Z,14.80
2018-04-30T13:33:41.784Z,14.40
2018-04-30T13:36:09.367Z,14.10
2018-04-30T13:38:36.936Z,13.90
2018-04-30T13:41:04.616Z,14.00
2018-04-30T13:43:32.961Z,14.00
2018-04-30T13:46:00.544Z,14.00
2018-04-30T13:48:28.096Z,14.10
2018-04-30T13:50:55.673Z,14.10
2018-04-30T13:53:23.246Z,14.20
2018-04-30T13:55:51.615Z,14.60
2018-04-30T13:58:19.976Z,14.70
2018-04-30T14:00:47.550Z,14.70
2018-04-30T14:03:15.886Z,14.80
2018-04-30T14:05:43.451Z,14.70
2018-04-30T14:08:11.055Z,14.90
2018-04-30T14:10:39.413Z,14.80
2018-04-30T14:13:07.000Z,14.80
2018-04-30T14:15:35.353Z,14.80
2018-04-30T14:18:02.952Z,14.80
2018-04-30T14:20:31.277Z,14.80
2018-04-30T14:22:58.856Z,14.90
2018-04-30T14:25:26.423Z,14.80
2018-04-30T14:27:54.788Z,14.90
2018-04-30T14:30:22.355Z,14.90
2018-04-30T14:32:49.943Z,14.90
2018-04-30T14:35:17.509Z,14.90
2018-04-30T14:37:45.126Z,14.80
2018-04-30T14:40:12.705Z,14.80
2018-04-30T14:42:41.049Z,14.90
2018-04-30T14:45:08.608Z,14.90
2018-04-30T14:47:36.231Z,14.90
2018-04-30T14:50:03.805Z,15.00
2018-04-30T14:52:31.369Z,15.00
2018-04-30T14:54:58.948Z,15.00
2018-04-30T14:57:26.516Z,14.90
2018-04-30T14:59:54.160Z,15.00
2018-04-30T15:02:21.716Z,15.20
2018-04-30T15:04:49.342Z,15.30
2018-04-30T15:07:17.661Z,15.30
2018-04-30T15:09:45.248Z,15.30
2018-04-30T15:12:12.806Z,15.20
2018-04-30T15:14:40.442Z,15.30
2018-04-30T15:17:08.019Z,15.50
2018-04-30T15:19:35.617Z,15.60
2018-04-30T15:22:03.186Z,15.60
2018-04-30T15:24:30.868Z,15.60
2018-04-30T15:26:58.443Z,15.70
2018-04-30T15:29:25.995Z,15.80
2018-04-30T15:31:53.620Z,15.80
2018-04-30T15:34:21.932Z,16.10
2018-04-30T15:36:49.517Z,16.00
2018-04-30T15:39:17.111Z,16.20
2018-04-30T15:41:44.804Z,16.20
2018-04-30T15:44:12.397Z,16.10
2018-04-30T15:46:39.987Z,15.90
2018-04-30T15:49:07.543Z,15.70
2018-04-30T15:51:35.139Z,15.40
2018-04-30T15:54:02.942Z,15.30
2018-04-30T15:56:30.631Z,15.20
2018-04-30T15:58:58.201Z,15.20
2018-04-30T16:01:26.541Z,15.10
2018-04-30T16:03:54.181Z,15.10
2018-04-30T16:06:21.727Z,15.10
2018-04-30T16:08:49.323Z,15.10
2018-04-30T16:11:16.904Z,15.00
2018-04-30T16:13:44.477Z,14.90
2018-04-30T16:16:12.055Z,14.70
2018-04-30T16:18:40.385Z,14.50
2018-04-30T16:21:08.052Z,14.50
2018-04-30T16:23:35.787Z,14.40
2018-04-30T16:26:03.344Z,14.20
2018-04-30T16:28:30.923Z,14.20
2018-04-30T16:30:58.492Z,14.20
2018-04-30T16:33:26.068Z,14.20
2018-04-30T16:35:53.682Z,14.20
2018-04-30T16:38:21.236Z,14.20
2018-04-30T16:40:48.816Z,14.30
2018-04-30T16:43:16.443Z,14.30
2018-04-30T16:45:45.692Z,14.30
2018-04-30T16:48:13.290Z,14.30
2018-04-30T16:50:40.854Z,14.30
2018-04-30T16:53:09.461Z,14.30
2018-04-30T16:55:37.062Z,14.30
2018-04-30T16:58:04.615Z,14.20
2018-04-30T17:00:32.204Z,14.10
2018-04-30T17:02:59.811Z,14.10
2018-04-30T17:05:27.371Z,14.10
2018-04-30T17:07:54.936Z,14.00
2018-04-30T17:10:22.501Z,13.90
2018-04-30T17:12:50.068Z,13.80
2018-04-30T17:15:17.651Z,13.80
2018-04-30T17:17:45.303Z,13.60
2018-04-30T17:20:12.836Z,13.50
2018-04-30T17:22:40.409Z,13.50
2018-04-30T17:25:08.024Z,13.50
2018-04-30T17:27:36.360Z,13.50
2018-04-30T17:30:03.964Z,13.50
2018-04-30T17:32:32.367Z,13.30
2018-04-30T17:34:59.925Z,13.30
2018-04-30T17:37:27.497Z,13.20
2018-04-30T17:39:55.056Z,13.00
2018-04-30T17:42:22.701Z,12.90
2018-04-30T17:44:50.360Z,12.90
2018-04-30T17:47:18.679Z,12.80
2018-04-30T17:49:46.269Z,12.80
2018-04-30T17:52:13.889Z,12.80
2018-04-30T17:54:42.193Z,12.70
2018-04-30T17:57:09.936Z,12.70
2018-04-30T17:59:37.513Z,12.70
2018-04-30T18:02:05.077Z,12.60
2018-04-30T18:04:32.654Z,12.50
2018-04-30T18:07:01.913Z,12.30
2018-04-30T18:09:29.402Z,12.30
2018-04-30T18:11:56.966Z,12.20
2018-04-30T18:14:24.541Z,12.10
2018-04-30T18:16:53.090Z,12.00
2018-04-30T18:19:20.658Z,12.00
2018-04-30T18:21:48.243Z,12.00
2018-04-30T18:24:15.783Z,11.90
2018-04-30T18:26:43.341Z,13.10
2018-04-30T18:29:10.890Z,11.90
2018-04-30T18:31:38.554Z,11.90
2018-04-30T18:34:06.135Z,11.80
2018-04-30T18:36:33.691Z,11.80
2018-04-30T18:39:01.422Z,11.80
2018-04-30T18:41:29.065Z,11.80
2018-04-30T18:43:56.651Z,11.70
2018-04-30T18:46:24.205Z,11.70
2018-04-30T18:48:51.940Z,11.60
2018-04-30T18:51:19.526Z,11.60
2018-04-30T18:53:47.177Z,11.60
2018-04-30T18:56:14.832Z,11.50
2018-04-30T18:58:42.403Z,11.50
2018-04-30T19:01:09.980Z,11.50
2018-04-30T19:03:37.552Z,11.50
2018-04-30T19:06:05.147Z,11.50
2018-04-30T19:08:33.458Z,11.40
2018-04-30T19:11:01.095Z,11.40
2018-04-30T19:13:29.412Z,11.40
2018-04-30T19:15:57.092Z,11.40
2018-04-30T19:18:24.672Z,11.40
2018-04-30T19:20:52.212Z,11.40
2018-04-30T19:23:19.829Z,11.30
2018-04-30T19:25:47.435Z,11.30
2018-04-30T19:28:15.028Z,11.20
2018-04-30T19:30:43.348Z,11.20
2018-04-30T19:33:10.911Z,11.20
2018-04-30T19:35:38.481Z,11.20
2018-04-30T19:38:06.082Z,11.20
2018-04-30T19:40:33.637Z,11.00
2018-04-30T19:43:01.225Z,11.00
2018-04-30T19:45:29.710Z,10.90
2018-04-30T19:47:58.046Z,10.90
2018-04-30T19:50:27.117Z,10.90
2018-04-30T19:52:54.944Z,10.90
2018-04-30T19:55:22.484Z,10.80
2018-04-30T19:57:50.819Z,10.80
2018-04-30T20:00:18.406Z,10.70
2018-04-30T20:02:46.163Z,10.70
2018-04-30T20:05:13.723Z,10.60
2018-04-30T20:10:16.028Z,10.40
2018-04-30T20:12:44.385Z,10.40
2018-04-30T20:15:11.955Z,10.30
2018-04-30T20:17:39.517Z,10.30
2018-04-30T20:20:07.080Z,10.30
2018-04-30T20:22:34.742Z,10.20
2018-04-30T20:25:02.353Z,10.20
2018-04-30T20:27:29.928Z,10.20
2018-04-30T20:29:59.084Z,10.10
2018-04-30T20:32:27.552Z,10.10
2018-04-30T20:34:55.908Z,10.10
2018-04-30T20:37:23.504Z,10.00
2018-04-30T20:39:51.117Z,10.10
2018-04-30T20:42:18.699Z,10.00
2018-04-30T20:44:47.807Z,10.00
2018-04-30T20:47:15.375Z,10.00
2018-04-30T20:49:43.718Z,10.00
2018-04-30T20:52:11.283Z,9.90
2018-04-30T20:54:38.829Z,10.00
2018-04-30T20:57:06.429Z,9.90
2018-04-30T20:59:34.764Z,9.90
2018-04-30T21:02:02.439Z,9.90
2018-04-30T21:04:30.015Z,9.90
2018-04-30T21:06:57.614Z,9.90
2018-04-30T21:09:25.920Z,9.90
2018-04-30T21:11:53.580Z,9.90
2018-04-30T21:14:21.134Z,9.90
2018-04-30T21:16:48.704Z,9.90
2018-04-30T21:19:16.303Z,9.90
2018-04-30T21:21:43.877Z,9.90
2018-04-30T21:24:12.220Z,9.80
2018-04-30T21:26:39.777Z,9.80
2018-04-30T21:29:07.337Z,9.80
2018-04-30T21:31:34.902Z,9.70
2018-04-30T21:34:02.527Z,9.70
2018-04-30T21:36:30.120Z,9.60
2018-04-30T21:38:57.691Z,9.60
2018-04-30T21:41:25.347Z,9.50
2018-04-30T21:43:52.942Z,9.50
2018-04-30T21:46:21.270Z,9.50
2018-04-30T21:48:48.881Z,9.50
2018-04-30T21:51:17.190Z,9.50
2018-04-30T21:53:44.780Z,9.50
2018-04-30T21:56:12.344Z,9.50
2018-04-30T21:58:40.055Z,9.40
2018-04-30T22:01:08.488Z,9.30
2018-04-30T22:03:36.036Z,9.30
2018-04-30T22:06:03.636Z,9.30
2018-04-30T22:08:31.952Z,9.30
2018-04-30T22:10:59.551Z,9.30
2018-04-30T22:13:27.099Z,9.30
2018-04-30T22:15:54.663Z,9.20
2018-04-30T22:18:22.216Z,9.20
2018-04-30T22:20:49.780Z,9.20
2018-04-30T22:23:17.381Z,9.20
2018-04-30T22:25:45.725Z,9.20
2018-04-30T22:28:13.315Z,9.20
2018-04-30T22:30:41.650Z,9.10
2018-04-30T22:33:09.191Z,9.10
2018-04-30T22:35:36.776Z,9.10
2018-04-30T22:38:04.352Z,9.00
2018-04-30T22:40:31.977Z,9.00
2018-04-30T22:42:59.526Z,9.10
2018-04-30T22:45:27.181Z,9.10
2018-04-30T22:47:54.740Z,9.00
2018-04-30T22:50:22.300Z,9.00
2018-04-30T22:52:50.640Z,9.00
2018-04-30T22:55:18.187Z,9.00
2018-04-30T22:57:45.781Z,9.00
2018-04-30T23:00:14.211Z,8.90
2018-04-30T23:02:41.806Z,8.90
2018-04-30T23:05:09.344Z,8.90
2018-04-30T23:07:36.921Z,8.90
2018-04-30T23:10:04.474Z,8.90
2018-04-30T23:12:32.048Z,8.80
2018-04-30T23:15:00.384Z,8.80
2018-04-30T23:17:28.129Z,8.90
2018-04-30T23:19:55.712Z,8.80
2018-04-30T23:22:34.064Z,8.80
2018-04-30T23:25:02.443Z,8.80
2018-04-30T23:27:30.797Z,8.80
2018-04-30T23:29:58.410Z,8.80
2018-04-30T23:32:25.975Z,8.80
2018-04-30T23:34:53.553Z,8.70
2018-04-30T23:37:21.101Z,8.70
2018-04-30T23:39:48.668Z,8.70
2018-04-30T23:42:16.204Z,8.70
2018-04-30T23:44:43.772Z,8.70
2018-04-30T23:47:11.355Z,8.70
2018-04-30T23:49:38.999Z,8.70
2018-04-30T23:52:06.548Z,8.70
2018-04-30T23:54:34.108Z,8.60
2018-04-30T23:57:01.680Z,8.60
2018-04-30T23:59:29.229Z,8.60
